sensor_id;sensor_type;location;lat;lon;timestamp;P1;P2;P0
69123;PMS5003;56232;53.384;-2.732;2023-07-31T00:01:50;0;0;
69123;PMS5003;56232;53.384;-2.732;2023-07-31T00:04:10;0;0;
69123;PMS5003;56232;53.384;-2.732;2023-07-31T00:06:36;1;1;
69123;PMS5003;56232;53.384;-2.732;2023-07-31T00:09:01;0;0;
69123;PMS5003;56232;53.384;-2.732;2023-07-31T00:11:27;1;1;
69123;PMS5003;56232;53.384;-2.732;2023-07-31T00:13:53;1;1;
69123;PMS5003;56232;53.384;-2.732;2023-07-31T00:16:18;1;1;
69123;PMS5003;56232;53.384;-2.732;2023-07-31T00:18:44;2;2;
69123;PMS5003;56232;53.384;-2.732;2023-07-31T00:21:09;0;0;
69123;PMS5003;56232;53.384;-2.732;2023-07-31T00:23:35;1;1;
69123;PMS5003;56232;53.384;-2.732;2023-07-31T00:26:00;0;0;
69123;PMS5003;56232;53.384;-2.732;2023-07-31T00:28:26;2;1;
69123;PMS5003;56232;53.384;-2.732;2023-07-31T00:30:51;1;1;
69123;PMS5003;56232;53.384;-2.732;2023-07-31T00:33:17;1;1;
69123;PMS5003;56232;53.384;-2.732;2023-07-31T00:35:43;1;1;
69123;PMS5003;56232;53.384;-2.732;2023-07-31T00:38:08;1;1;
69123;PMS5003;56232;53.384;-2.732;2023-07-31T00:40:34;0;0;
69123;PMS5003;56232;53.384;-2.732;2023-07-31T00:42:59;1;1;
69123;PMS5003;56232;53.384;-2.732;2023-07-31T00:45:25;3;2;
69123;PMS5003;56232;53.384;-2.732;2023-07-31T00:47:50;1;1;
69123;PMS5003;56232;53.384;-2.732;2023-07-31T00:50:16;2;2;
69123;PMS5003;56232;53.384;-2.732;2023-07-31T00:52:41;4;4;
69123;PMS5003;56232;53.384;-2.732;2023-07-31T00:55:07;4;4;
69123;PMS5003;56232;53.384;-2.732;2023-07-31T00:57:33;4;4;
69123;PMS5003;56232;53.384;-2.732;2023-07-31T00:59:58;7;6;
69123;PMS5003;56232;53.384;-2.732;2023-07-31T01:02:24;8;7;
69123;PMS5003;56232;53.384;-2.732;2023-07-31T01:04:49;7;7;
69123;PMS5003;56232;53.384;-2.732;2023-07-31T01:07:17;3;2;
69123;PMS5003;56232;53.384;-2.732;2023-07-31T01:09:42;2;2;
69123;PMS5003;56232;53.384;-2.732;2023-07-31T01:12:06;0;0;
69123;PMS5003;56232;53.384;-2.732;2023-07-31T01:14:32;1;1;
69123;PMS5003;56232;53.384;-2.732;2023-07-31T01:16:57;0;0;
69123;PMS5003;56232;53.384;-2.732;2023-07-31T01:19:25;1;1;
69123;PMS5003;56232;53.384;-2.732;2023-07-31T01:21:58;1;1;
69123;PMS5003;56232;53.384;-2.732;2023-07-31T01:24:19;0;0;
69123;PMS5003;56232;53.384;-2.732;2023-07-31T01:26:40;0;0;
69123;PMS5003;56232;53.384;-2.732;2023-07-31T01:29:07;0;0;
69123;PMS5003;56232;53.384;-2.732;2023-07-31T01:31:31;0;0;
69123;PMS5003;56232;53.384;-2.732;2023-07-31T01:33:57;0;0;
69123;PMS5003;56232;53.384;-2.732;2023-07-31T01:36:22;0;0;
69123;PMS5003;56232;53.384;-2.732;2023-07-31T01:38:47;0;0;
69123;PMS5003;56232;53.384;-2.732;2023-07-31T01:41:13;1;0;
69123;PMS5003;56232;53.384;-2.732;2023-07-31T01:43:39;1;0;
69123;PMS5003;56232;53.384;-2.732;2023-07-31T01:46:04;0;0;
69123;PMS5003;56232;53.384;-2.732;2023-07-31T01:48:30;0;0;
69123;PMS5003;56232;53.384;-2.732;2023-07-31T01:50:55;0;0;
69123;PMS5003;56232;53.384;-2.732;2023-07-31T01:53:21;0;0;
69123;PMS5003;56232;53.384;-2.732;2023-07-31T01:55:46;0;0;
69123;PMS5003;56232;53.384;-2.732;2023-07-31T01:58:12;1;1;
69123;PMS5003;56232;53.384;-2.732;2023-07-31T02:00:37;0;0;
69123;PMS5003;56232;53.384;-2.732;2023-07-31T02:03:03;0;0;
69123;PMS5003;56232;53.384;-2.732;2023-07-31T02:05:29;2;1;
69123;PMS5003;56232;53.384;-2.732;2023-07-31T02:07:54;0;0;
69123;PMS5003;56232;53.384;-2.732;2023-07-31T02:10:20;0;0;
69123;PMS5003;56232;53.384;-2.732;2023-07-31T02:12:45;1;1;
69123;PMS5003;56232;53.384;-2.732;2023-07-31T02:15:11;0;0;
69123;PMS5003;56232;53.384;-2.732;2023-07-31T02:17:37;0;0;
69123;PMS5003;56232;53.384;-2.732;2023-07-31T02:20:02;0;0;
69123;PMS5003;56232;53.384;-2.732;2023-07-31T02:22:28;0;0;
69123;PMS5003;56232;53.384;-2.732;2023-07-31T02:24:53;1;1;
69123;PMS5003;56232;53.384;-2.732;2023-07-31T02:27:19;0;0;
69123;PMS5003;56232;53.384;-2.732;2023-07-31T02:29:44;0;0;
69123;PMS5003;56232;53.384;-2.732;2023-07-31T02:32:10;0;0;
69123;PMS5003;56232;53.384;-2.732;2023-07-31T02:34:35;0;0;
69123;PMS5003;56232;53.384;-2.732;2023-07-31T02:37:01;0;0;
69123;PMS5003;56232;53.384;-2.732;2023-07-31T02:39:27;0;0;
69123;PMS5003;56232;53.384;-2.732;2023-07-31T02:41:52;2;0;
69123;PMS5003;56232;53.384;-2.732;2023-07-31T02:44:18;0;0;
69123;PMS5003;56232;53.384;-2.732;2023-07-31T02:46:43;0;0;
69123;PMS5003;56232;53.384;-2.732;2023-07-31T02:49:09;0;0;
69123;PMS5003;56232;53.384;-2.732;2023-07-31T02:51:34;0;0;
69123;PMS5003;56232;53.384;-2.732;2023-07-31T02:54:00;0;0;
69123;PMS5003;56232;53.384;-2.732;2023-07-31T02:56:25;0;0;
69123;PMS5003;56232;53.384;-2.732;2023-07-31T02:58:51;0;0;
69123;PMS5003;56232;53.384;-2.732;2023-07-31T03:01:17;0;0;
69123;PMS5003;56232;53.384;-2.732;2023-07-31T03:03:42;0;0;
69123;PMS5003;56232;53.384;-2.732;2023-07-31T03:06:08;1;0;
69123;PMS5003;56232;53.384;-2.732;2023-07-31T03:08:33;0;0;
69123;PMS5003;56232;53.384;-2.732;2023-07-31T03:10:59;1;1;
69123;PMS5003;56232;53.384;-2.732;2023-07-31T03:13:25;0;0;
69123;PMS5003;56232;53.384;-2.732;2023-07-31T03:15:50;0;0;
69123;PMS5003;56232;53.384;-2.732;2023-07-31T03:18:16;0;0;
69123;PMS5003;56232;53.384;-2.732;2023-07-31T03:20:42;0;0;
69123;PMS5003;56232;53.384;-2.732;2023-07-31T03:23:07;0;0;
69123;PMS5003;56232;53.384;-2.732;2023-07-31T03:25:32;0;0;
69123;PMS5003;56232;53.384;-2.732;2023-07-31T03:27:58;0;0;
69123;PMS5003;56232;53.384;-2.732;2023-07-31T03:30:24;0;0;
69123;PMS5003;56232;53.384;-2.732;2023-07-31T03:32:49;0;0;
69123;PMS5003;56232;53.384;-2.732;2023-07-31T03:35:15;0;0;
69123;PMS5003;56232;53.384;-2.732;2023-07-31T03:37:40;0;0;
69123;PMS5003;56232;53.384;-2.732;2023-07-31T03:40:06;0;0;
69123;PMS5003;56232;53.384;-2.732;2023-07-31T03:42:31;0;0;
69123;PMS5003;56232;53.384;-2.732;2023-07-31T03:44:57;0;0;
69123;PMS5003;56232;53.384;-2.732;2023-07-31T03:47:23;0;0;
69123;PMS5003;56232;53.384;-2.732;2023-07-31T03:49:48;0;0;
69123;PMS5003;56232;53.384;-2.732;2023-07-31T03:52:13;0;0;
69123;PMS5003;56232;53.384;-2.732;2023-07-31T03:54:39;1;0;
69123;PMS5003;56232;53.384;-2.732;2023-07-31T03:57:05;0;0;
69123;PMS5003;56232;53.384;-2.732;2023-07-31T03:59:30;1;0;
69123;PMS5003;56232;53.384;-2.732;2023-07-31T04:01:56;1;1;
69123;PMS5003;56232;53.384;-2.732;2023-07-31T04:04:21;0;0;
69123;PMS5003;56232;53.384;-2.732;2023-07-31T04:06:47;0;0;
69123;PMS5003;56232;53.384;-2.732;2023-07-31T04:09:12;0;0;
69123;PMS5003;56232;53.384;-2.732;2023-07-31T04:11:38;0;0;
69123;PMS5003;56232;53.384;-2.732;2023-07-31T04:14:03;0;0;
69123;PMS5003;56232;53.384;-2.732;2023-07-31T04:16:29;0;0;
69123;PMS5003;56232;53.384;-2.732;2023-07-31T04:18:54;0;0;
69123;PMS5003;56232;53.384;-2.732;2023-07-31T04:21:20;0;0;
69123;PMS5003;56232;53.384;-2.732;2023-07-31T04:23:46;1;0;
69123;PMS5003;56232;53.384;-2.732;2023-07-31T04:26:11;0;0;
69123;PMS5003;56232;53.384;-2.732;2023-07-31T04:28:37;0;0;
69123;PMS5003;56232;53.384;-2.732;2023-07-31T04:31:02;1;1;
69123;PMS5003;56232;53.384;-2.732;2023-07-31T04:33:28;1;1;
69123;PMS5003;56232;53.384;-2.732;2023-07-31T04:35:54;1;1;
69123;PMS5003;56232;53.384;-2.732;2023-07-31T04:38:19;1;1;
69123;PMS5003;56232;53.384;-2.732;2023-07-31T04:40:45;0;0;
69123;PMS5003;56232;53.384;-2.732;2023-07-31T04:43:10;1;1;
69123;PMS5003;56232;53.384;-2.732;2023-07-31T04:45:36;1;1;
69123;PMS5003;56232;53.384;-2.732;2023-07-31T04:48:01;2;2;
69123;PMS5003;56232;53.384;-2.732;2023-07-31T04:50:27;0;0;
69123;PMS5003;56232;53.384;-2.732;2023-07-31T04:52:52;1;1;
69123;PMS5003;56232;53.384;-2.732;2023-07-31T04:55:18;1;1;
69123;PMS5003;56232;53.384;-2.732;2023-07-31T04:57:44;2;2;
69123;PMS5003;56232;53.384;-2.732;2023-07-31T05:00:09;1;1;
69123;PMS5003;56232;53.384;-2.732;2023-07-31T05:02:35;0;0;
69123;PMS5003;56232;53.384;-2.732;2023-07-31T05:05:00;1;1;
69123;PMS5003;56232;53.384;-2.732;2023-07-31T05:07:26;1;1;
69123;PMS5003;56232;53.384;-2.732;2023-07-31T05:09:51;2;2;
69123;PMS5003;56232;53.384;-2.732;2023-07-31T05:12:17;2;2;
69123;PMS5003;56232;53.384;-2.732;2023-07-31T05:14:43;2;2;
69123;PMS5003;56232;53.384;-2.732;2023-07-31T05:17:08;2;2;
69123;PMS5003;56232;53.384;-2.732;2023-07-31T05:19:34;3;2;
69123;PMS5003;56232;53.384;-2.732;2023-07-31T05:21:59;2;2;
69123;PMS5003;56232;53.384;-2.732;2023-07-31T05:24:25;4;3;
69123;PMS5003;56232;53.384;-2.732;2023-07-31T05:26:50;4;4;
69123;PMS5003;56232;53.384;-2.732;2023-07-31T05:29:16;3;3;
69123;PMS5003;56232;53.384;-2.732;2023-07-31T05:31:42;3;3;
69123;PMS5003;56232;53.384;-2.732;2023-07-31T05:34:07;3;3;
69123;PMS5003;56232;53.384;-2.732;2023-07-31T05:36:33;3;3;
69123;PMS5003;56232;53.384;-2.732;2023-07-31T05:38:58;3;3;
69123;PMS5003;56232;53.384;-2.732;2023-07-31T05:41:24;4;4;
69123;PMS5003;56232;53.384;-2.732;2023-07-31T05:43:49;4;4;
69123;PMS5003;56232;53.384;-2.732;2023-07-31T05:46:15;3;3;
69123;PMS5003;56232;53.384;-2.732;2023-07-31T05:48:45;4;4;
69123;PMS5003;56232;53.384;-2.732;2023-07-31T05:51:06;4;3;
69123;PMS5003;56232;53.384;-2.732;2023-07-31T05:53:31;4;3;
69123;PMS5003;56232;53.384;-2.732;2023-07-31T05:55:57;5;4;
69123;PMS5003;56232;53.384;-2.732;2023-07-31T05:58:23;5;5;
69123;PMS5003;56232;53.384;-2.732;2023-07-31T06:00:48;4;4;
69123;PMS5003;56232;53.384;-2.732;2023-07-31T06:03:14;4;4;
69123;PMS5003;56232;53.384;-2.732;2023-07-31T06:05:39;5;5;
69123;PMS5003;56232;53.384;-2.732;2023-07-31T06:08:04;3;3;
69123;PMS5003;56232;53.384;-2.732;2023-07-31T06:10:30;4;3;
69123;PMS5003;56232;53.384;-2.732;2023-07-31T06:12:55;4;4;
69123;PMS5003;56232;53.384;-2.732;2023-07-31T06:15:21;3;3;
69123;PMS5003;56232;53.384;-2.732;2023-07-31T06:17:47;4;3;
69123;PMS5003;56232;53.384;-2.732;2023-07-31T06:20:12;4;4;
69123;PMS5003;56232;53.384;-2.732;2023-07-31T06:22:38;3;3;
69123;PMS5003;56232;53.384;-2.732;2023-07-31T06:25:04;4;4;
69123;PMS5003;56232;53.384;-2.732;2023-07-31T06:27:29;3;3;
69123;PMS5003;56232;53.384;-2.732;2023-07-31T06:29:54;5;5;
69123;PMS5003;56232;53.384;-2.732;2023-07-31T06:32:20;5;5;
69123;PMS5003;56232;53.384;-2.732;2023-07-31T06:34:46;5;5;
69123;PMS5003;56232;53.384;-2.732;2023-07-31T06:37:11;4;4;
69123;PMS5003;56232;53.384;-2.732;2023-07-31T06:39:37;4;4;
69123;PMS5003;56232;53.384;-2.732;2023-07-31T06:42:02;5;5;
69123;PMS5003;56232;53.384;-2.732;2023-07-31T06:44:28;6;5;
69123;PMS5003;56232;53.384;-2.732;2023-07-31T06:46:53;3;3;
69123;PMS5003;56232;53.384;-2.732;2023-07-31T06:49:19;4;4;
69123;PMS5003;56232;53.384;-2.732;2023-07-31T06:51:45;5;5;
69123;PMS5003;56232;53.384;-2.732;2023-07-31T06:54:10;4;4;
69123;PMS5003;56232;53.384;-2.732;2023-07-31T06:56:36;4;3;
69123;PMS5003;56232;53.384;-2.732;2023-07-31T06:59:01;4;4;
69123;PMS5003;56232;53.384;-2.732;2023-07-31T07:01:27;4;4;
69123;PMS5003;56232;53.384;-2.732;2023-07-31T07:03:52;3;3;
69123;PMS5003;56232;53.384;-2.732;2023-07-31T07:06:32;6;4;
69123;PMS5003;56232;53.384;-2.732;2023-07-31T07:08:43;3;3;
69123;PMS5003;56232;53.384;-2.732;2023-07-31T07:11:09;6;5;
69123;PMS5003;56232;53.384;-2.732;2023-07-31T07:13:34;3;3;
69123;PMS5003;56232;53.384;-2.732;2023-07-31T07:16:00;4;3;
69123;PMS5003;56232;53.384;-2.732;2023-07-31T07:18:26;4;3;
69123;PMS5003;56232;53.384;-2.732;2023-07-31T07:20:52;4;4;
69123;PMS5003;56232;53.384;-2.732;2023-07-31T07:23:16;4;4;
69123;PMS5003;56232;53.384;-2.732;2023-07-31T07:25:42;4;4;
69123;PMS5003;56232;53.384;-2.732;2023-07-31T07:28:08;8;5;
69123;PMS5003;56232;53.384;-2.732;2023-07-31T07:30:33;6;5;
69123;PMS5003;56232;53.384;-2.732;2023-07-31T07:32:59;4;4;
69123;PMS5003;56232;53.384;-2.732;2023-07-31T07:35:25;5;5;
69123;PMS5003;56232;53.384;-2.732;2023-07-31T07:37:50;5;5;
69123;PMS5003;56232;53.384;-2.732;2023-07-31T07:40:16;5;3;
69123;PMS5003;56232;53.384;-2.732;2023-07-31T07:42:41;4;4;
69123;PMS5003;56232;53.384;-2.732;2023-07-31T07:45:07;4;4;
69123;PMS5003;56232;53.384;-2.732;2023-07-31T07:47:32;4;4;
69123;PMS5003;56232;53.384;-2.732;2023-07-31T07:49:58;3;3;
69123;PMS5003;56232;53.384;-2.732;2023-07-31T07:52:25;4;4;
69123;PMS5003;56232;53.384;-2.732;2023-07-31T07:54:49;4;4;
69123;PMS5003;56232;53.384;-2.732;2023-07-31T07:57:14;2;2;
69123;PMS5003;56232;53.384;-2.732;2023-07-31T07:59:40;4;4;
69123;PMS5003;56232;53.384;-2.732;2023-07-31T08:02:06;3;3;
69123;PMS5003;56232;53.384;-2.732;2023-07-31T08:04:31;5;5;
69123;PMS5003;56232;53.384;-2.732;2023-07-31T08:06:57;3;3;
69123;PMS5003;56232;53.384;-2.732;2023-07-31T08:09:22;4;4;
69123;PMS5003;56232;53.384;-2.732;2023-07-31T08:11:48;4;3;
69123;PMS5003;56232;53.384;-2.732;2023-07-31T08:14:13;2;2;
69123;PMS5003;56232;53.384;-2.732;2023-07-31T08:16:39;4;4;
69123;PMS5003;56232;53.384;-2.732;2023-07-31T08:19:04;4;4;
69123;PMS5003;56232;53.384;-2.732;2023-07-31T08:21:30;2;2;
69123;PMS5003;56232;53.384;-2.732;2023-07-31T08:23:55;3;3;
69123;PMS5003;56232;53.384;-2.732;2023-07-31T08:26:21;5;3;
69123;PMS5003;56232;53.384;-2.732;2023-07-31T08:28:46;5;5;
69123;PMS5003;56232;53.384;-2.732;2023-07-31T08:31:12;3;3;
69123;PMS5003;56232;53.384;-2.732;2023-07-31T08:33:38;3;3;
69123;PMS5003;56232;53.384;-2.732;2023-07-31T08:36:03;3;3;
69123;PMS5003;56232;53.384;-2.732;2023-07-31T08:38:29;2;2;
69123;PMS5003;56232;53.384;-2.732;2023-07-31T08:40:54;3;3;
69123;PMS5003;56232;53.384;-2.732;2023-07-31T08:43:20;7;5;
69123;PMS5003;56232;53.384;-2.732;2023-07-31T08:45:45;5;4;
69123;PMS5003;56232;53.384;-2.732;2023-07-31T08:48:11;3;3;
69123;PMS5003;56232;53.384;-2.732;2023-07-31T08:50:36;3;3;
69123;PMS5003;56232;53.384;-2.732;2023-07-31T08:53:02;5;4;
69123;PMS5003;56232;53.384;-2.732;2023-07-31T08:55:27;3;3;
69123;PMS5003;56232;53.384;-2.732;2023-07-31T08:57:53;4;4;
69123;PMS5003;56232;53.384;-2.732;2023-07-31T09:00:19;3;3;
69123;PMS5003;56232;53.384;-2.732;2023-07-31T09:02:45;4;4;
69123;PMS5003;56232;53.384;-2.732;2023-07-31T09:05:09;3;3;
69123;PMS5003;56232;53.384;-2.732;2023-07-31T09:07:35;2;2;
69123;PMS5003;56232;53.384;-2.732;2023-07-31T09:10:01;2;2;
69123;PMS5003;56232;53.384;-2.732;2023-07-31T09:12:26;2;2;
69123;PMS5003;56232;53.384;-2.732;2023-07-31T09:14:52;2;2;
69123;PMS5003;56232;53.384;-2.732;2023-07-31T09:19:43;4;4;
69123;PMS5003;56232;53.384;-2.732;2023-07-31T09:22:08;5;5;
69123;PMS5003;56232;53.384;-2.732;2023-07-31T09:24:34;4;4;
69123;PMS5003;56232;53.384;-2.732;2023-07-31T09:26:59;8;7;
69123;PMS5003;56232;53.384;-2.732;2023-07-31T09:29:25;8;6;
69123;PMS5003;56232;53.384;-2.732;2023-07-31T09:31:50;6;5;
69123;PMS5003;56232;53.384;-2.732;2023-07-31T09:34:16;4;4;
69123;PMS5003;56232;53.384;-2.732;2023-07-31T09:36:41;6;6;
69123;PMS5003;56232;53.384;-2.732;2023-07-31T09:39:08;7;7;
69123;PMS5003;56232;53.384;-2.732;2023-07-31T09:41:32;8;7;
69123;PMS5003;56232;53.384;-2.732;2023-07-31T09:43:58;6;5;
69123;PMS5003;56232;53.384;-2.732;2023-07-31T09:46:24;5;5;
69123;PMS5003;56232;53.384;-2.732;2023-07-31T09:48:49;5;5;
69123;PMS5003;56232;53.384;-2.732;2023-07-31T09:51:15;5;5;
69123;PMS5003;56232;53.384;-2.732;2023-07-31T09:53:40;3;3;
69123;PMS5003;56232;53.384;-2.732;2023-07-31T09:56:06;3;3;
69123;PMS5003;56232;53.384;-2.732;2023-07-31T09:58:32;3;3;
69123;PMS5003;56232;53.384;-2.732;2023-07-31T10:00:57;3;2;
69123;PMS5003;56232;53.384;-2.732;2023-07-31T10:03:22;2;2;
69123;PMS5003;56232;53.384;-2.732;2023-07-31T10:05:49;2;2;
69123;PMS5003;56232;53.384;-2.732;2023-07-31T10:08:13;3;2;
69123;PMS5003;56232;53.384;-2.732;2023-07-31T10:10:40;3;3;
69123;PMS5003;56232;53.384;-2.732;2023-07-31T10:13:04;2;2;
69123;PMS5003;56232;53.384;-2.732;2023-07-31T10:15:30;2;2;
69123;PMS5003;56232;53.384;-2.732;2023-07-31T10:17:55;2;2;
69123;PMS5003;56232;53.384;-2.732;2023-07-31T10:20:22;1;1;
69123;PMS5003;56232;53.384;-2.732;2023-07-31T10:22:47;2;2;
69123;PMS5003;56232;53.384;-2.732;2023-07-31T10:25:12;4;4;
69123;PMS5003;56232;53.384;-2.732;2023-07-31T10:27:38;3;2;
69123;PMS5003;56232;53.384;-2.732;2023-07-31T10:30:04;4;4;
69123;PMS5003;56232;53.384;-2.732;2023-07-31T10:32:29;2;2;
69123;PMS5003;56232;53.384;-2.732;2023-07-31T10:34:54;5;4;
69123;PMS5003;56232;53.384;-2.732;2023-07-31T10:37:21;2;2;
69123;PMS5003;56232;53.384;-2.732;2023-07-31T10:39:46;2;2;
69123;PMS5003;56232;53.384;-2.732;2023-07-31T10:42:12;3;3;
69123;PMS5003;56232;53.384;-2.732;2023-07-31T10:44:37;3;2;
69123;PMS5003;56232;53.384;-2.732;2023-07-31T10:47:02;1;1;
69123;PMS5003;56232;53.384;-2.732;2023-07-31T10:49:28;3;3;
69123;PMS5003;56232;53.384;-2.732;2023-07-31T10:51:54;3;2;
69123;PMS5003;56232;53.384;-2.732;2023-07-31T10:54:19;2;2;
69123;PMS5003;56232;53.384;-2.732;2023-07-31T10:56:45;5;4;
69123;PMS5003;56232;53.384;-2.732;2023-07-31T10:59:10;3;3;
69123;PMS5003;56232;53.384;-2.732;2023-07-31T11:04:07;2;2;
69123;PMS5003;56232;53.384;-2.732;2023-07-31T11:06:29;3;3;
69123;PMS5003;56232;53.384;-2.732;2023-07-31T11:08:52;4;4;
69123;PMS5003;56232;53.384;-2.732;2023-07-31T11:11:18;5;4;
69123;PMS5003;56232;53.384;-2.732;2023-07-31T11:13:44;5;4;
69123;PMS5003;56232;53.384;-2.732;2023-07-31T11:16:10;5;5;
69123;PMS5003;56232;53.384;-2.732;2023-07-31T11:18:35;4;3;
69123;PMS5003;56232;53.384;-2.732;2023-07-31T11:21:00;4;3;
69123;PMS5003;56232;53.384;-2.732;2023-07-31T11:23:26;5;4;
69123;PMS5003;56232;53.384;-2.732;2023-07-31T11:25:51;4;4;
69123;PMS5003;56232;53.384;-2.732;2023-07-31T11:28:17;5;5;
69123;PMS5003;56232;53.384;-2.732;2023-07-31T11:30:42;4;4;
69123;PMS5003;56232;53.384;-2.732;2023-07-31T11:33:08;5;4;
69123;PMS5003;56232;53.384;-2.732;2023-07-31T11:35:34;7;6;
69123;PMS5003;56232;53.384;-2.732;2023-07-31T11:37:59;5;5;
69123;PMS5003;56232;53.384;-2.732;2023-07-31T11:40:25;5;4;
69123;PMS5003;56232;53.384;-2.732;2023-07-31T11:42:50;6;5;
69123;PMS5003;56232;53.384;-2.732;2023-07-31T11:45:15;5;4;
69123;PMS5003;56232;53.384;-2.732;2023-07-31T11:47:41;3;3;
69123;PMS5003;56232;53.384;-2.732;2023-07-31T11:50:10;5;5;
69123;PMS5003;56232;53.384;-2.732;2023-07-31T11:52:34;5;5;
69123;PMS5003;56232;53.384;-2.732;2023-07-31T11:54:59;5;5;
69123;PMS5003;56232;53.384;-2.732;2023-07-31T11:57:23;6;5;
69123;PMS5003;56232;53.384;-2.732;2023-07-31T11:59:49;4;3;
69123;PMS5003;56232;53.384;-2.732;2023-07-31T12:02:14;3;3;
69123;PMS5003;56232;53.384;-2.732;2023-07-31T12:04:40;4;4;
69123;PMS5003;56232;53.384;-2.732;2023-07-31T12:07:05;6;6;
69123;PMS5003;56232;53.384;-2.732;2023-07-31T12:09:31;6;6;
69123;PMS5003;56232;53.384;-2.732;2023-07-31T12:11:56;5;3;
69123;PMS5003;56232;53.384;-2.732;2023-07-31T12:14:23;6;6;
69123;PMS5003;56232;53.384;-2.732;2023-07-31T12:16:47;5;5;
69123;PMS5003;56232;53.384;-2.732;2023-07-31T12:19:13;6;5;
69123;PMS5003;56232;53.384;-2.732;2023-07-31T12:21:38;5;5;
69123;PMS5003;56232;53.384;-2.732;2023-07-31T12:24:04;3;3;
69123;PMS5003;56232;53.384;-2.732;2023-07-31T12:26:33;5;4;
69123;PMS5003;56232;53.384;-2.732;2023-07-31T12:28:55;7;6;
69123;PMS5003;56232;53.384;-2.732;2023-07-31T12:31:21;6;5;
69123;PMS5003;56232;53.384;-2.732;2023-07-31T12:33:47;5;4;
69123;PMS5003;56232;53.384;-2.732;2023-07-31T12:36:13;6;6;
69123;PMS5003;56232;53.384;-2.732;2023-07-31T12:38:37;4;4;
69123;PMS5003;56232;53.384;-2.732;2023-07-31T12:41:03;4;4;
69123;PMS5003;56232;53.384;-2.732;2023-07-31T12:43:28;6;6;
69123;PMS5003;56232;53.384;-2.732;2023-07-31T12:45:54;3;3;
69123;PMS5003;56232;53.384;-2.732;2023-07-31T12:48:19;5;3;
69123;PMS5003;56232;53.384;-2.732;2023-07-31T12:50:45;2;2;
69123;PMS5003;56232;53.384;-2.732;2023-07-31T12:53:10;4;3;
69123;PMS5003;56232;53.384;-2.732;2023-07-31T12:55:36;3;3;
69123;PMS5003;56232;53.384;-2.732;2023-07-31T12:58:01;3;3;
69123;PMS5003;56232;53.384;-2.732;2023-07-31T13:00:27;2;2;
69123;PMS5003;56232;53.384;-2.732;2023-07-31T13:02:52;4;3;
69123;PMS5003;56232;53.384;-2.732;2023-07-31T13:05:18;2;2;
69123;PMS5003;56232;53.384;-2.732;2023-07-31T13:07:43;2;2;
69123;PMS5003;56232;53.384;-2.732;2023-07-31T13:10:09;2;2;
69123;PMS5003;56232;53.384;-2.732;2023-07-31T13:12:34;4;4;
69123;PMS5003;56232;53.384;-2.732;2023-07-31T13:15:00;1;1;
69123;PMS5003;56232;53.384;-2.732;2023-07-31T13:17:27;9;5;
69123;PMS5003;56232;53.384;-2.732;2023-07-31T13:19:51;4;4;
69123;PMS5003;56232;53.384;-2.732;2023-07-31T13:22:16;4;4;
69123;PMS5003;56232;53.384;-2.732;2023-07-31T13:24:42;5;4;
69123;PMS5003;56232;53.384;-2.732;2023-07-31T13:27:07;3;3;
69123;PMS5003;56232;53.384;-2.732;2023-07-31T13:29:33;3;3;
69123;PMS5003;56232;53.384;-2.732;2023-07-31T13:31:59;2;2;
69123;PMS5003;56232;53.384;-2.732;2023-07-31T13:34:26;3;3;
69123;PMS5003;56232;53.384;-2.732;2023-07-31T13:36:50;4;3;
69123;PMS5003;56232;53.384;-2.732;2023-07-31T13:39:15;5;5;
69123;PMS5003;56232;53.384;-2.732;2023-07-31T13:41:41;4;3;
69123;PMS5003;56232;53.384;-2.732;2023-07-31T13:44:07;2;1;
69123;PMS5003;56232;53.384;-2.732;2023-07-31T13:46:32;3;3;
69123;PMS5003;56232;53.384;-2.732;2023-07-31T13:48:57;2;2;
69123;PMS5003;56232;53.384;-2.732;2023-07-31T13:51:23;2;2;
69123;PMS5003;56232;53.384;-2.732;2023-07-31T13:53:49;1;1;
69123;PMS5003;56232;53.384;-2.732;2023-07-31T13:56:14;2;2;
69123;PMS5003;56232;53.384;-2.732;2023-07-31T13:58:40;1;1;
69123;PMS5003;56232;53.384;-2.732;2023-07-31T14:01:05;2;2;
69123;PMS5003;56232;53.384;-2.732;2023-07-31T14:03:31;1;1;
69123;PMS5003;56232;53.384;-2.732;2023-07-31T14:05:57;0;0;
69123;PMS5003;56232;53.384;-2.732;2023-07-31T14:08:22;1;1;
69123;PMS5003;56232;53.384;-2.732;2023-07-31T14:10:48;2;1;
69123;PMS5003;56232;53.384;-2.732;2023-07-31T14:13:13;1;0;
69123;PMS5003;56232;53.384;-2.732;2023-07-31T14:15:39;1;1;
69123;PMS5003;56232;53.384;-2.732;2023-07-31T14:18:04;0;0;
69123;PMS5003;56232;53.384;-2.732;2023-07-31T14:20:30;3;2;
69123;PMS5003;56232;53.384;-2.732;2023-07-31T14:22:55;1;0;
69123;PMS5003;56232;53.384;-2.732;2023-07-31T14:25:21;1;1;
69123;PMS5003;56232;53.384;-2.732;2023-07-31T14:27:47;2;1;
69123;PMS5003;56232;53.384;-2.732;2023-07-31T14:30:12;2;2;
69123;PMS5003;56232;53.384;-2.732;2023-07-31T14:32:38;4;3;
69123;PMS5003;56232;53.384;-2.732;2023-07-31T14:35:03;1;1;
69123;PMS5003;56232;53.384;-2.732;2023-07-31T14:39:54;4;3;
69123;PMS5003;56232;53.384;-2.732;2023-07-31T14:42:19;1;1;
69123;PMS5003;56232;53.384;-2.732;2023-07-31T14:44:45;1;1;
69123;PMS5003;56232;53.384;-2.732;2023-07-31T14:47:10;3;2;
69123;PMS5003;56232;53.384;-2.732;2023-07-31T14:49:36;1;1;
69123;PMS5003;56232;53.384;-2.732;2023-07-31T14:52:02;2;2;
69123;PMS5003;56232;53.384;-2.732;2023-07-31T14:54:27;1;1;
69123;PMS5003;56232;53.384;-2.732;2023-07-31T14:56:53;2;2;
69123;PMS5003;56232;53.384;-2.732;2023-07-31T14:59:18;2;2;
69123;PMS5003;56232;53.384;-2.732;2023-07-31T15:04:09;1;1;
69123;PMS5003;56232;53.384;-2.732;2023-07-31T15:06:35;1;1;
69123;PMS5003;56232;53.384;-2.732;2023-07-31T15:09:00;4;3;
69123;PMS5003;56232;53.384;-2.732;2023-07-31T15:11:26;2;2;
69123;PMS5003;56232;53.384;-2.732;2023-07-31T15:13:51;3;2;
69123;PMS5003;56232;53.384;-2.732;2023-07-31T15:16:17;3;3;
69123;PMS5003;56232;53.384;-2.732;2023-07-31T15:18:43;3;3;
69123;PMS5003;56232;53.384;-2.732;2023-07-31T15:21:08;2;1;
69123;PMS5003;56232;53.384;-2.732;2023-07-31T15:23:34;2;2;
69123;PMS5003;56232;53.384;-2.732;2023-07-31T15:25:59;2;2;
69123;PMS5003;56232;53.384;-2.732;2023-07-31T15:28:25;2;2;
69123;PMS5003;56232;53.384;-2.732;2023-07-31T15:30:50;3;2;
69123;PMS5003;56232;53.384;-2.732;2023-07-31T15:33:16;3;3;
69123;PMS5003;56232;53.384;-2.732;2023-07-31T15:35:41;2;2;
69123;PMS5003;56232;53.384;-2.732;2023-07-31T15:38:07;2;2;
69123;PMS5003;56232;53.384;-2.732;2023-07-31T15:40:33;2;2;
69123;PMS5003;56232;53.384;-2.732;2023-07-31T15:42:58;2;1;
69123;PMS5003;56232;53.384;-2.732;2023-07-31T15:45:23;3;2;
69123;PMS5003;56232;53.384;-2.732;2023-07-31T15:47:49;2;1;
69123;PMS5003;56232;53.384;-2.732;2023-07-31T15:50:15;4;3;
69123;PMS5003;56232;53.384;-2.732;2023-07-31T15:52:40;3;2;
69123;PMS5003;56232;53.384;-2.732;2023-07-31T15:55:06;1;1;
69123;PMS5003;56232;53.384;-2.732;2023-07-31T15:57:31;1;1;
69123;PMS5003;56232;53.384;-2.732;2023-07-31T15:59:57;1;1;
69123;PMS5003;56232;53.384;-2.732;2023-07-31T16:02:22;2;2;
69123;PMS5003;56232;53.384;-2.732;2023-07-31T16:04:47;0;0;
69123;PMS5003;56232;53.384;-2.732;2023-07-31T16:07:13;2;1;
69123;PMS5003;56232;53.384;-2.732;2023-07-31T16:09:39;1;1;
69123;PMS5003;56232;53.384;-2.732;2023-07-31T16:12:05;2;2;
69123;PMS5003;56232;53.384;-2.732;2023-07-31T16:14:30;1;1;
69123;PMS5003;56232;53.384;-2.732;2023-07-31T16:16:55;1;1;
69123;PMS5003;56232;53.384;-2.732;2023-07-31T16:19:21;2;1;
69123;PMS5003;56232;53.384;-2.732;2023-07-31T16:21:46;1;1;
69123;PMS5003;56232;53.384;-2.732;2023-07-31T16:24:12;1;1;
69123;PMS5003;56232;53.384;-2.732;2023-07-31T16:26:37;0;0;
69123;PMS5003;56232;53.384;-2.732;2023-07-31T16:29:03;0;0;
69123;PMS5003;56232;53.384;-2.732;2023-07-31T16:31:28;1;1;